首页
METAR-TAF:

METAR-TAF

机场 :

Ashtabula County Airport

阿什塔比拉, 俄亥俄州, 美国

纬度: 41-46-46N, 经度: 080-41-48W, 海拔: 281米

当前天气观测

该预报发布于1小时和11分钟前的14:53 UTC
风速9节,风向南转南东
温度 2°C
湿度 51%
气压 1021 hPa
能見度: 16.1公里
天空无云

METAR: KHZY 131453Z AUTO 16009KT 10SM CLR 02/M07 A3014 RMK AO2 SLP216 T00171067 58006

时间: 11:04 (16:04 UTC)


TAF: 丢失

超过4000个机场的气象观测和天气预报(METAR&TAF报告)。

可查询的气象台以黄色和红色小点在地图上表示。

将鼠标移到小点上方,可查看气象台名称。

然后点击查看天气观测和预报。

如需切换地图:点击带黑十字的绿色按钮放大地图;点击带横线的绿色按钮缩小地图;或者点击绿色箭头查看邻近地区的地图。


METAR-TAF: